Time;durP1;ratioP1;P1;durP2;ratioP2;P2;SDS_P1;SDS_P2;PMS_P1;PMS_P2;Temp;Humidity;BMP_temperature;BMP_pressure;BME280_temperature;BME280_humidity;BME280_pressure;Samples;Min_cycle;Max_cycle;Signal;HPM_P1;HPM_P2
2023/10/30 00:00:08;;;;;;;;;;;;;;;8.64;88.95;95653.66;5134823;27;973;-61
2023/10/30 00:02:37;;;;;;;;;;;;;;;8.50;88.30;95660.19;5134703;27;1917;-61
2023/10/30 00:05:03;;;;;;;;;;;;;;;8.24;88.53;95657.97;5134765;27;1035;-61
2023/10/30 00:07:29;;;;;;;;;;;;;;;8.23;88.91;95655.44;5134495;27;1246;-61
2023/10/30 00:09:55;;;;;;;;;;;;;;;8.22;88.51;95657.25;5134505;27;1118;-61
2023/10/30 00:12:22;;;;;;;;;;;;;;;8.06;90.25;95656.91;5134299;27;1096;-60
2023/10/30 00:14:48;;;;;;;;;;;;;;;8.07;89.70;95658.59;5134391;28;1093;-61
2023/10/30 00:17:14;;;;;;;;;;;;;;;8.17;89.79;95657.66;5134319;28;932;-61
2023/10/30 00:19:39;;;;;;;;;;;;;;;8.30;89.57;95653.94;5134343;28;1049;-60
2023/10/30 00:22:10;;;;;;;;;;;;;;;8.37;88.48;95655.91;5134624;28;984;-61
2023/10/30 00:24:37;;;;;;;;;;;;;;;8.22;88.14;95651.94;5134635;28;1119;-60
2023/10/30 00:27:03;;;;;;;;;;;;;;;7.97;89.15;95651.41;5134560;28;1010;-60
2023/10/30 00:29:29;;;;;;;;;;;;;;;8.00;89.64;95653.78;5134281;28;980;-60
2023/10/30 00:31:55;;;;;;;;;;;;;;;8.12;89.77;95659.03;5134273;28;978;-60
2023/10/30 00:34:21;;;;;;;;;;;;;;;8.19;89.22;95660.19;5134007;28;1239;-60
2023/10/30 00:36:47;;;;;;;;;;;;;;;8.19;89.00;95665.50;5137321;27;1063;-60
2023/10/30 00:39:13;;;;;;;;;;;;;;;8.28;88.53;95659.38;5120186;27;1563;-60
2023/10/30 00:41:39;;;;;;;;;;;;;;;8.30;88.20;95659.25;5138321;27;1043;-61
2023/10/30 00:44:06;;;;;;;;;;;;;;;8.32;88.74;95657.31;5138311;27;1902;-60
2023/10/30 00:46:31;;;;;;;;;;;;;;;8.39;88.16;95661.94;5120056;27;966;-61
2023/10/30 00:48:58;;;;;;;;;;;;;;;8.31;87.91;95661.78;5138372;27;1002;-61
2023/10/30 00:51:24;;;;;;;;;;;;;;;8.10;88.15;95653.88;5138032;27;1036;-61
2023/10/30 00:53:49;;;;;;;;;;;;;;;8.01;88.16;95654.66;5138312;27;975;-61
2023/10/30 00:56:15;;;;;;;;;;;;;;;7.92;88.44;95650.97;5138102;27;1055;-61
2023/10/30 00:58:41;;;;;;;;;;;;;;;7.94;88.40;95657.00;5137946;27;1023;-60
2023/10/30 01:01:09;;;;;;;;;;;;;;;7.96;88.43;95657.69;5137980;27;985;-60
2023/10/30 01:03:37;;;;;;;;;;;;;;;7.85;88.76;95659.59;5119425;27;1909;-61
2023/10/30 01:06:03;;;;;;;;;;;;;;;7.82;89.13;95652.75;5138026;27;1057;-61
2023/10/30 01:08:29;;;;;;;;;;;;;;;7.90;88.96;95650.25;5125990;27;1167;-61
2023/10/30 01:10:58;;;;;;;;;;;;;;;7.71;89.12;95655.47;5117441;28;1119;-60
2023/10/30 01:13:24;;;;;;;;;;;;;;;7.71;89.26;95653.66;5117128;28;1033;-60
2023/10/30 01:15:53;;;;;;;;;;;;;;;7.74;89.25;95652.53;5117386;28;1056;-60
2023/10/30 01:18:20;;;;;;;;;;;;;;;7.65;89.63;95648.03;5117175;28;1261;-60
2023/10/30 01:20:46;;;;;;;;;;;;;;;7.83;89.40;95651.75;5117192;28;1064;-60
2023/10/30 01:23:16;;;;;;;;;;;;;;;7.80;88.86;95650.19;5116995;28;1981;-60
2023/10/30 01:25:42;;;;;;;;;;;;;;;7.76;88.89;95643.47;5117161;28;965;-60
2023/10/30 01:28:08;;;;;;;;;;;;;;;7.72;89.66;95641.19;5116822;28;906;-61
2023/10/30 01:30:34;;;;;;;;;;;;;;;7.77;90.23;95637.16;5116732;28;962;-61
2023/10/30 01:33:00;;;;;;;;;;;;;;;7.75;90.05;95643.59;5122441;27;1225;-61
2023/10/30 01:35:26;;;;;;;;;;;;;;;7.71;89.56;95642.16;5137361;27;1260;-60
2023/10/30 01:37:52;;;;;;;;;;;;;;;7.69;89.48;95642.28;5137473;27;966;-60
2023/10/30 01:40:18;;;;;;;;;;;;;;;7.75;90.02;95647.09;5137042;27;1036;-60
2023/10/30 01:42:44;;;;;;;;;;;;;;;7.81;89.51;95653.69;5137105;27;1905;-61
2023/10/30 01:45:10;;;;;;;;;;;;;;;7.76;90.14;95651.44;5136962;27;1052;-61
2023/10/30 01:47:37;;;;;;;;;;;;;;;7.71;89.41;95648.31;5136618;27;1031;-61
2023/10/30 01:50:05;;;;;;;;;;;;;;;7.60;88.86;95646.56;5136945;27;1037;-61
2023/10/30 01:52:32;;;;;;;;;;;;;;;7.60;88.67;95645.72;5136768;27;1321;-61
2023/10/30 01:54:58;;;;;;;;;;;;;;;7.55;89.03;95647.94;5136888;27;1056;-61
2023/10/30 01:57:25;;;;;;;;;;;;;;;7.59;88.77;95650.22;5137065;27;1063;-61
2023/10/30 01:59:51;;;;;;;;;;;;;;;7.56;88.31;95644.31;5136840;27;1203;-61
2023/10/30 02:02:18;;;;;;;;;;;;;;;7.48;88.52;95652.13;5136511;27;1905;-61
2023/10/30 02:04:44;;;;;;;;;;;;;;;7.50;88.57;95650.16;5136815;27;965;-61
2023/10/30 02:07:11;;;;;;;;;;;;;;;7.46;88.52;95657.56;5136822;27;1087;-63
2023/10/30 02:09:38;;;;;;;;;;;;;;;7.43;88.49;95660.47;5157318;27;1083;-62
2023/10/30 02:12:04;;;;;;;;;;;;;;;7.47;88.58;95661.06;5157386;27;991;-62
2023/10/30 02:14:30;;;;;;;;;;;;;;;7.75;87.19;95663.06;5157421;27;988;-62
2023/10/30 02:16:56;;;;;;;;;;;;;;;7.58;87.04;95663.66;5157532;27;1015;-62
2023/10/30 02:19:23;;;;;;;;;;;;;;;7.39;87.96;95661.72;5157077;27;1035;-62
2023/10/30 02:21:52;;;;;;;;;;;;;;;7.37;88.77;95656.50;5157410;27;973;-62
2023/10/30 02:24:19;;;;;;;;;;;;;;;7.24;89.22;95661.16;5156981;27;1967;-62
2023/10/30 02:26:49;;;;;;;;;;;;;;;7.32;89.38;95653.41;5157317;27;969;-62
2023/10/30 02:29:15;;;;;;;;;;;;;;;7.42;89.26;95651.66;5156798;27;1116;-62
2023/10/30 02:31:41;;;;;;;;;;;;;;;7.49;88.71;95657.28;5157096;27;972;-62
2023/10/30 02:34:07;;;;;;;;;;;;;;;7.49;89.46;95665.25;5123634;27;1208;-61
2023/10/30 02:36:33;;;;;;;;;;;;;;;7.48;90.13;95660.94;5135996;27;1127;-61
2023/10/30 02:39:01;;;;;;;;;;;;;;;7.42;89.58;95664.94;5136323;27;962;-61
2023/10/30 02:41:31;;;;;;;;;;;;;;;7.27;89.76;95673.38;5136013;27;1047;-62
2023/10/30 02:43:57;;;;;;;;;;;;;;;7.16;90.47;95667.13;5136076;27;2000;-62
2023/10/30 02:46:24;;;;;;;;;;;;;;;7.14;90.33;95666.41;5136108;27;969;-62
2023/10/30 02:48:50;;;;;;;;;;;;;;;7.05;91.36;95661.84;5135804;27;1028;-62
2023/10/30 02:51:16;;;;;;;;;;;;;;;7.00;91.54;95664.03;5135633;27;1064;-62
2023/10/30 02:53:42;;;;;;;;;;;;;;;7.00;91.51;95659.59;5135737;27;1044;-62
2023/10/30 02:56:08;;;;;;;;;;;;;;;7.12;91.24;95656.88;5135759;27;1056;-62
2023/10/30 02:58:34;;;;;;;;;;;;;;;7.15;90.54;95656.63;5134984;27;977;-62
2023/10/30 03:01:00;;;;;;;;;;;;;;;7.13;91.35;95662.09;5135366;27;1037;-62
2023/10/30 03:03:26;;;;;;;;;;;;;;;7.28;89.93;95648.47;5135564;27;1995;-62
2023/10/30 03:05:52;;;;;;;;;;;;;;;7.23;89.65;95657.66;5117414;27;1040;-62
2023/10/30 03:08:18;;;;;;;;;;;;;;;7.14;90.18;95669.06;5116887;27;1261;-62
2023/10/30 03:10:46;;;;;;;;;;;;;;;7.10;89.13;95667.66;5135406;27;984;-62
2023/10/30 03:13:12;;;;;;;;;;;;;;;7.00;89.40;95672.03;5135432;27;984;-62
2023/10/30 03:15:38;;;;;;;;;;;;;;;6.86;89.43;95669.66;5135294;27;1048;-62
2023/10/30 03:18:05;;;;;;;;;;;;;;;6.91;89.78;95675.47;5135386;27;1049;-62
2023/10/30 03:20:31;;;;;;;;;;;;;;;6.91;89.53;95672.81;5135436;27;996;-61
2023/10/30 03:22:57;;;;;;;;;;;;;;;6.90;89.43;95681.72;5135097;27;1913;-60
2023/10/30 03:25:22;;;;;;;;;;;;;;;6.61;89.08;95682.28;5116939;27;1059;-62
2023/10/30 03:27:48;;;;;;;;;;;;;;;6.57;89.84;95684.34;5135243;27;1013;-60
2023/10/30 03:30:16;;;;;;;;;;;;;;;6.65;89.59;95686.38;5135178;27;1240;-61
2023/10/30 03:32:41;;;;;;;;;;;;;;;6.75;89.16;95682.00;5138082;27;1196;-61
2023/10/30 03:35:08;;;;;;;;;;;;;;;6.75;89.31;95686.47;5155669;27;1040;-60
2023/10/30 03:37:34;;;;;;;;;;;;;;;6.76;89.64;95678.38;5155570;27;1048;-61
2023/10/30 03:40:00;;;;;;;;;;;;;;;6.63;89.11;95693.63;5155500;27;1102;-62
2023/10/30 03:42:25;;;;;;;;;;;;;;;6.55;89.18;95686.28;5155261;27;2000;-63
2023/10/30 03:44:51;;;;;;;;;;;;;;;6.56;88.81;95681.81;5155735;27;1052;-63
2023/10/30 03:47:17;;;;;;;;;;;;;;;6.67;89.20;95684.44;5155352;27;1098;-63
2023/10/30 03:49:43;;;;;;;;;;;;;;;6.49;89.58;95689.44;5155506;27;1044;-64
2023/10/30 03:52:09;;;;;;;;;;;;;;;6.54;89.89;95691.72;5155503;27;1002;-62
2023/10/30 03:54:35;;;;;;;;;;;;;;;6.52;89.62;95689.19;5155350;27;1603;-61
2023/10/30 03:57:01;;;;;;;;;;;;;;;6.52;89.86;95691.00;5155257;27;1035;-63
2023/10/30 03:59:27;;;;;;;;;;;;;;;6.54;89.63;95689.06;5155412;27;1031;-63
2023/10/30 04:01:54;;;;;;;;;;;;;;;6.49;89.70;95694.75;5155488;27;987;-64
2023/10/30 04:04:20;;;;;;;;;;;;;;;6.57;89.74;95686.16;5155276;27;1906;-61
2023/10/30 04:06:46;;;;;;;;;;;;;;;6.65;89.21;95686.38;5155445;27;1038;-61
2023/10/30 04:09:12;;;;;;;;;;;;;;;6.72;89.72;95692.06;5154923;27;1253;-61
2023/10/30 04:11:39;;;;;;;;;;;;;;;6.60;89.63;95689.41;5155005;27;1043;-61
2023/10/30 04:14:05;;;;;;;;;;;;;;;6.51;89.60;95684.00;5155000;27;1335;-62
2023/10/30 04:16:31;;;;;;;;;;;;;;;6.48;89.44;95692.22;5154948;27;1040;-62
2023/10/30 04:18:57;;;;;;;;;;;;;;;6.58;89.65;95683.38;5155327;27;992;-59
2023/10/30 04:21:23;;;;;;;;;;;;;;;6.57;89.37;95694.13;5155244;27;971;-63
2023/10/30 04:23:49;;;;;;;;;;;;;;;6.50;89.48;95690.28;5154961;27;1984;-61
2023/10/30 04:26:15;;;;;;;;;;;;;;;6.52;89.82;95685.69;5154878;27;1032;-61
2023/10/30 04:28:41;;;;;;;;;;;;;;;6.39;89.03;95686.69;5154973;27;914;-61
2023/10/30 04:31:08;;;;;;;;;;;;;;;6.33;89.16;95697.78;5155209;27;1052;-60
2023/10/30 04:33:34;;;;;;;;;;;;;;;6.26;89.75;95693.94;5144467;27;1243;-60
2023/10/30 04:36:04;;;;;;;;;;;;;;;6.30;89.45;95698.03;5134187;28;1032;-60
2023/10/30 04:38:33;;;;;;;;;;;;;;;6.32;89.35;95698.75;5134364;28;969;-61
2023/10/30 04:41:05;;;;;;;;;;;;;;;6.29;89.01;95693.66;5134070;28;1087;-62
2023/10/30 04:43:34;;;;;;;;;;;;;;;6.20;88.90;95692.59;5134186;28;1987;-62
2023/10/30 04:46:00;;;;;;;;;;;;;;;6.08;88.63;95684.75;5134030;28;1154;-62
2023/10/30 04:48:26;;;;;;;;;;;;;;;6.08;88.53;95693.56;5134269;28;1007;-62
2023/10/30 04:50:52;;;;;;;;;;;;;;;5.99;89.39;95695.09;5134216;28;1060;-61
2023/10/30 04:53:18;;;;;;;;;;;;;;;5.96;89.67;95700.69;5133977;28;973;-61
2023/10/30 04:55:48;;;;;;;;;;;;;;;6.06;89.87;95696.31;5115859;28;1504;-61
2023/10/30 04:58:14;;;;;;;;;;;;;;;6.16;89.55;95700.91;5133897;28;1111;-60
2023/10/30 05:00:42;;;;;;;;;;;;;;;6.20;89.42;95705.00;5116111;28;984;-60
2023/10/30 05:03:11;;;;;;;;;;;;;;;6.14;90.29;95709.00;5133855;28;1995;-60
2023/10/30 05:05:37;;;;;;;;;;;;;;;6.14;89.58;95703.69;5134200;28;1036;-60
2023/10/30 05:08:04;;;;;;;;;;;;;;;6.22;88.93;95714.56;5133625;28;1072;-60
2023/10/30 05:10:30;;;;;;;;;;;;;;;6.15;89.21;95704.56;5134033;28;973;-60
2023/10/30 05:12:56;;;;;;;;;;;;;;;6.18;89.39;95706.94;5134137;28;1139;-61
2023/10/30 05:15:23;;;;;;;;;;;;;;;6.14;89.10;95714.31;5115547;28;1876;-60
2023/10/30 05:17:49;;;;;;;;;;;;;;;6.18;89.41;95717.56;5133858;28;1040;-60
2023/10/30 05:20:15;;;;;;;;;;;;;;;6.19;89.72;95712.16;5133698;28;1028;-60
2023/10/30 05:22:42;;;;;;;;;;;;;;;6.21;89.41;95725.31;5134661;27;1990;-60
2023/10/30 05:25:09;;;;;;;;;;;;;;;6.21;89.48;95720.00;5137777;27;1041;-60
2023/10/30 05:27:35;;;;;;;;;;;;;;;6.14;89.75;95724.94;5137600;27;945;-58
2023/10/30 05:30:01;;;;;;;;;;;;;;;6.10;90.35;95733.25;5119387;27;1031;-59
2023/10/30 05:32:27;;;;;;;;;;;;;;;6.30;89.12;95729.03;5138016;27;1235;-61
2023/10/30 05:34:54;;;;;;;;;;;;;;;6.22;89.13;95729.63;5139968;27;1086;-60
2023/10/30 05:37:20;;;;;;;;;;;;;;;6.35;90.32;95729.53;5157933;27;1036;-60
2023/10/30 05:39:48;;;;;;;;;;;;;;;6.53;90.13;95733.38;5157921;27;1091;-60
2023/10/30 05:42:14;;;;;;;;;;;;;;;6.67;89.53;95740.25;5158066;27;976;-60
2023/10/30 05:44:41;;;;;;;;;;;;;;;6.88;89.34;95743.00;5157728;27;1984;-60
2023/10/30 05:47:07;;;;;;;;;;;;;;;7.16;88.19;95746.06;5157943;27;1005;-62
2023/10/30 05:49:33;;;;;;;;;;;;;;;7.74;86.35;95740.38;5157723;27;1080;-61
2023/10/30 05:51:59;;;;;;;;;;;;;;;10.33;74.53;95751.13;5157643;27;1134;-63
2023/10/30 05:54:25;;;;;;;;;;;;;;;12.84;63.32;95755.78;5157612;27;1126;-64
2023/10/30 05:56:51;;;;;;;;;;;;;;;14.38;57.08;95759.94;5139448;27;1032;-61
2023/10/30 05:59:18;;;;;;;;;;;;;;;15.52;53.12;95772.25;5157803;27;976;-61
2023/10/30 06:01:44;;;;;;;;;;;;;;;16.31;50.39;95782.03;5157645;27;987;-61
2023/10/30 06:04:10;;;;;;;;;;;;;;;17.44;48.54;95782.91;5157721;27;1996;-62
2023/10/30 06:06:36;;;;;;;;;;;;;;;17.78;46.79;95792.28;5157471;27;1047;-63
2023/10/30 06:09:03;;;;;;;;;;;;;;;18.18;46.36;95801.69;5138887;27;1088;-63
2023/10/30 06:11:29;;;;;;;;;;;;;;;18.62;45.47;95794.38;5157586;27;960;-62
2023/10/30 06:13:55;;;;;;;;;;;;;;;19.00;44.93;95800.31;5139110;27;964;-62
2023/10/30 06:16:21;;;;;;;;;;;;;;;19.54;43.64;95806.91;5157133;27;908;-62
2023/10/30 06:18:47;;;;;;;;;;;;;;;20.04;42.87;95818.41;5157245;27;972;-62
2023/10/30 06:21:17;;;;;;;;;;;;;;;20.34;42.43;95811.81;5157258;27;1055;-62
2023/10/30 06:23:43;;;;;;;;;;;;;;;20.48;42.23;95814.31;5139003;27;1902;-62
2023/10/30 06:26:10;;;;;;;;;;;;;;;21.30;41.01;95816.00;5157250;27;1044;-62
2023/10/30 06:28:37;;;;;;;;;;;;;;;21.80;39.69;95822.59;5157160;27;1052;-62
2023/10/30 06:31:16;;;;;;;;;;;;;;;21.87;39.25;95821.72;5156977;27;1105;-62
2023/10/30 06:33:43;;;;;;;;;;;;;;;22.18;38.68;95829.16;5145361;27;1176;-62
2023/10/30 06:36:09;;;;;;;;;;;;;;;22.68;37.96;95823.00;5136397;27;970;-61
2023/10/30 06:38:36;;;;;;;;;;;;;;;22.77;37.62;95829.84;5136042;27;1633;-62
2023/10/30 06:41:03;;;;;;;;;;;;;;;22.93;37.12;95834.75;5136268;27;1022;-61
2023/10/30 06:43:29;;;;;;;;;;;;;;;23.05;36.84;95839.50;5135940;27;1914;-63
2023/10/30 06:46:04;;;;;;;;;;;;;;;23.26;36.50;95832.81;5135754;27;1013;-62
2023/10/30 06:48:31;;;;;;;;;;;;;;;23.46;36.25;95844.38;5135926;27;1007;-62
2023/10/30 06:50:57;;;;;;;;;;;;;;;22.76;37.21;95830.91;5136114;27;1043;-63
2023/10/30 06:53:23;;;;;;;;;;;;;;;22.59;37.79;95836.03;5117760;27;977;-62
2023/10/30 06:55:50;;;;;;;;;;;;;;;23.09;36.94;95827.13;5135904;27;1003;-62
2023/10/30 06:58:17;;;;;;;;;;;;;;;23.13;37.10;95822.88;5135568;27;975;-62
2023/10/30 07:00:43;;;;;;;;;;;;;;;23.05;36.75;95829.47;5135577;27;1036;-62
2023/10/30 07:03:09;;;;;;;;;;;;;;;21.78;39.20;95829.31;5134878;27;1910;-62
2023/10/30 07:05:35;;;;;;;;;;;;;;;19.62;42.78;95809.44;5135454;27;1041;-62
2023/10/30 07:08:01;;;;;;;;;;;;;;;17.65;48.07;95791.06;5135377;27;1083;-62
2023/10/30 07:10:27;;;;;;;;;;;;;;;16.68;52.05;95777.66;5135222;27;1107;-61
2023/10/30 07:12:53;;;;;;;;;;;;;;;16.12;53.42;95768.00;5135229;27;1079;-61
2023/10/30 07:15:20;;;;;;;;;;;;;;;15.19;57.49;95760.78;5135395;27;1048;-61
2023/10/30 07:17:47;;;;;;;;;;;;;;;14.97;59.40;95755.13;5135090;27;951;-61
2023/10/30 07:20:14;;;;;;;;;;;;;;;14.48;61.11;95749.84;5135137;27;1040;-61
2023/10/30 07:22:40;;;;;;;;;;;;;;;14.54;61.49;95746.47;5134971;27;1909;-61
2023/10/30 07:25:07;;;;;;;;;;;;;;;14.94;61.01;95751.97;5135119;27;1004;-61
2023/10/30 07:27:33;;;;;;;;;;;;;;;14.91;61.55;95746.91;5134808;27;1012;-61
2023/10/30 07:29:59;;;;;;;;;;;;;;;14.66;61.86;95754.22;5134987;27;1015;-61
2023/10/30 07:32:25;;;;;;;;;;;;;;;14.41;63.70;95748.84;5117017;27;1180;-61
2023/10/30 07:34:51;;;;;;;;;;;;;;;14.75;62.98;95755.88;5155508;27;1118;-61
2023/10/30 07:37:17;;;;;;;;;;;;;;;14.56;63.89;95754.38;5155621;27;1054;-61
2023/10/30 07:39:44;;;;;;;;;;;;;;;14.42;64.31;95753.22;5155753;27;976;-61
2023/10/30 07:42:10;;;;;;;;;;;;;;;14.79;64.49;95749.13;5155434;27;1091;-61
2023/10/30 07:44:36;;;;;;;;;;;;;;;14.78;63.66;95756.38;5155202;27;1902;-61
2023/10/30 07:47:03;;;;;;;;;;;;;;;14.79;62.02;95749.97;5154845;27;1020;-61
2023/10/30 07:49:29;;;;;;;;;;;;;;;15.10;62.05;95751.03;5155229;27;1125;-62
2023/10/30 07:51:55;;;;;;;;;;;;;;;15.20;62.35;95749.81;5155280;27;1039;-61
2023/10/30 07:54:21;;;;;;;;;;;;;;;15.06;62.10;95750.56;5155122;27;1043;-61
2023/10/30 07:56:47;;;;;;;;;;;;;;;15.11;62.50;95744.66;5155518;27;1052;-61
2023/10/30 07:59:14;;;;;;;;;;;;;;;15.18;64.17;95749.16;5155427;27;1143;-61
2023/10/30 08:01:40;;;;;;;;;;;;;;;15.37;62.84;95747.06;5155106;27;1046;-62
2023/10/30 08:04:09;;;;;;;;;;;;;;;15.21;63.49;95742.56;5155242;27;1905;-62
2023/10/30 08:06:35;;;;;;;;;;;;;;;15.01;64.27;95745.69;5155383;27;955;-61
2023/10/30 08:09:01;;;;;;;;;;;;;;;15.34;62.63;95737.47;5154992;27;1076;-61
2023/10/30 08:11:27;;;;;;;;;;;;;;;15.41;63.65;95734.91;5154929;27;1123;-61
2023/10/30 08:13:53;;;;;;;;;;;;;;;15.35;63.15;95733.75;5155285;27;965;-61
2023/10/30 08:16:19;;;;;;;;;;;;;;;15.60;63.01;95730.94;5154786;27;1047;-61
2023/10/30 08:18:46;;;;;;;;;;;;;;;15.79;61.67;95735.88;5155233;27;1043;-62
2023/10/30 08:21:13;;;;;;;;;;;;;;;16.03;61.42;95727.78;5154804;27;1115;-62
2023/10/30 08:23:39;;;;;;;;;;;;;;;16.00;60.30;95721.72;5154834;27;1979;-61
2023/10/30 08:26:06;;;;;;;;;;;;;;;16.28;60.22;95725.75;5154904;27;981;-61
2023/10/30 08:28:32;;;;;;;;;;;;;;;16.31;59.84;95725.34;5154687;27;1071;-61
2023/10/30 08:30:58;;;;;;;;;;;;;;;16.42;59.96;95719.50;5155036;27;1034;-61
2023/10/30 08:33:24;;;;;;;;;;;;;;;16.52;59.39;95725.50;5146060;27;1177;-61
2023/10/30 08:35:50;;;;;;;;;;;;;;;16.73;59.24;95716.69;5134355;28;946;-61
2023/10/30 08:38:16;;;;;;;;;;;;;;;16.93;58.17;95716.16;5115906;28;1048;-61
2023/10/30 08:40:42;;;;;;;;;;;;;;;16.59;58.98;95715.63;5134256;28;983;-61
2023/10/30 08:43:08;;;;;;;;;;;;;;;16.95;58.42;95714.91;5134162;28;1988;-61
2023/10/30 08:45:34;;;;;;;;;;;;;;;17.12;57.82;95709.34;5134436;28;973;-61
2023/10/30 08:48:00;;;;;;;;;;;;;;;17.21;59.69;95712.78;5134014;28;1027;-61
2023/10/30 08:50:26;;;;;;;;;;;;;;;17.41;57.10;95711.13;5134130;28;1053;-61
2023/10/30 08:52:52;;;;;;;;;;;;;;;17.54;56.44;95715.84;5115852;28;1699;-61
2023/10/30 08:55:18;;;;;;;;;;;;;;;17.79;55.54;95710.91;5133782;28;1126;-61
2023/10/30 08:57:43;;;;;;;;;;;;;;;17.98;56.73;95709.47;5135077;27;1028;-61
2023/10/30 09:00:10;;;;;;;;;;;;;;;18.26;54.40;95708.69;5138076;27;1051;-61
2023/10/30 09:02:36;;;;;;;;;;;;;;;18.31;54.01;95703.53;5138024;27;1910;-62
2023/10/30 09:05:03;;;;;;;;;;;;;;;18.28;54.98;95703.91;5138043;27;1001;-61
2023/10/30 09:07:29;;;;;;;;;;;;;;;18.46;55.46;95701.56;5137716;27;1100;-62
2023/10/30 09:09:55;;;;;;;;;;;;;;;18.58;54.32;95695.63;5137672;27;1132;-61
2023/10/30 09:12:22;;;;;;;;;;;;;;;18.69;52.76;95695.06;5137818;27;1044;-61
2023/10/30 09:14:48;;;;;;;;;;;;;;;18.40;52.71;95699.66;5119275;27;1072;-61
2023/10/30 09:17:15;;;;;;;;;;;;;;;18.54;53.20;95690.59;5137393;27;1049;-61
2023/10/30 09:19:41;;;;;;;;;;;;;;;18.77;53.03;95692.19;5137814;27;969;-61
2023/10/30 09:22:07;;;;;;;;;;;;;;;18.78;53.02;95685.75;5137579;27;1079;-61
2023/10/30 09:24:33;;;;;;;;;;;;;;;19.00;52.72;95685.69;5137359;27;1913;-61
2023/10/30 09:26:59;;;;;;;;;;;;;;;19.05;52.54;95685.94;5137650;27;1047;-61
2023/10/30 09:29:25;;;;;;;;;;;;;;;19.17;51.50;95687.00;5118828;27;969;-61
2023/10/30 09:31:51;;;;;;;;;;;;;;;19.28;51.50;95681.00;5119251;27;976;-61
2023/10/30 09:34:17;;;;;;;;;;;;;;;19.35;51.77;95674.78;5153738;27;1251;-61
2023/10/30 09:36:43;;;;;;;;;;;;;;;19.36;50.91;95669.16;5157895;27;1027;-61
2023/10/30 09:39:09;;;;;;;;;;;;;;;19.53;51.11;95669.63;5157910;27;1006;-61
2023/10/30 09:41:38;;;;;;;;;;;;;;;19.59;49.94;95666.09;5157827;27;960;-62
2023/10/30 09:44:08;;;;;;;;;;;;;;;19.78;50.14;95656.34;5157523;27;1913;-61
2023/10/30 09:46:35;;;;;;;;;;;;;;;19.86;50.52;95653.47;5157975;27;1009;-61
2023/10/30 09:49:02;;;;;;;;;;;;;;;19.92;49.35;95657.22;5157600;27;1052;-61
2023/10/30 09:51:29;;;;;;;;;;;;;;;20.16;49.95;95647.59;5157488;27;1087;-61
2023/10/30 09:53:56;;;;;;;;;;;;;;;20.45;48.72;95646.34;5157636;27;1007;-61
2023/10/30 09:56:22;;;;;;;;;;;;;;;20.44;47.00;95638.41;5157690;27;1011;-61
2023/10/30 09:58:49;;;;;;;;;;;;;;;20.53;49.04;95626.28;5157637;27;1059;-61
2023/10/30 10:01:15;;;;;;;;;;;;;;;20.43;47.47;95629.44;5157664;27;1048;-61
2023/10/30 10:03:41;;;;;;;;;;;;;;;20.46;46.61;95629.00;5157427;27;1914;-61
2023/10/30 10:06:08;;;;;;;;;;;;;;;20.32;47.35;95619.22;5157342;27;1032;-61
2023/10/30 10:08:34;;;;;;;;;;;;;;;20.21;47.51;95614.41;5156587;27;1083;-61
2023/10/30 10:11:00;;;;;;;;;;;;;;;20.46;47.90;95601.84;5157799;27;1059;-61
2023/10/30 10:13:29;;;;;;;;;;;;;;;20.63;47.92;95601.44;5157345;27;1031;-61
2023/10/30 10:15:55;;;;;;;;;;;;;;;20.69;47.08;95597.03;5157379;27;1034;-61
2023/10/30 10:18:22;;;;;;;;;;;;;;;20.76;47.06;95600.56;5138784;27;1049;-61
2023/10/30 10:20:55;;;;;;;;;;;;;;;20.88;45.76;95592.56;5138709;27;1198;-61
2023/10/30 10:23:22;;;;;;;;;;;;;;;20.96;46.19;95590.47;5156816;27;1914;-61
2023/10/30 10:25:51;;;;;;;;;;;;;;;20.97;46.26;95589.41;5157155;27;968;-61
2023/10/30 10:28:17;;;;;;;;;;;;;;;20.92;46.34;95581.03;5156758;27;1047;-61
2023/10/30 10:30:44;;;;;;;;;;;;;;;20.77;47.01;95592.19;5156820;27;1107;-61
2023/10/30 10:33:10;;;;;;;;;;;;;;;20.89;46.71;95577.91;5150015;27;1176;-61
2023/10/30 10:35:36;;;;;;;;;;;;;;;20.74;46.32;95580.94;5136239;27;1043;-61
2023/10/30 10:38:09;;;;;;;;;;;;;;;20.95;46.58;95574.34;5136221;27;976;-60
2023/10/30 10:40:35;;;;;;;;;;;;;;;21.11;46.28;95570.31;5117576;27;1868;-61
2023/10/30 10:43:02;;;;;;;;;;;;;;;21.26;46.02;95568.13;5136035;27;1998;-61
2023/10/30 10:45:30;;;;;;;;;;;;;;;21.31;46.30;95568.31;5136172;27;956;-61
2023/10/30 10:47:57;;;;;;;;;;;;;;;21.12;46.14;95559.22;5135870;27;1047;-61
2023/10/30 10:50:23;;;;;;;;;;;;;;;21.09;45.39;95559.63;5135570;27;1037;-61
2023/10/30 10:52:53;;;;;;;;;;;;;;;21.11;46.67;95552.09;5135933;27;984;-61
2023/10/30 10:55:23;;;;;;;;;;;;;;;21.32;45.92;95556.38;5117290;27;984;-61
2023/10/30 10:58:03;;;;;;;;;;;;;;;21.42;46.12;95545.03;5135815;27;1099;-61
2023/10/30 11:00:30;;;;;;;;;;;;;;;21.42;46.49;95537.69;5135607;27;1064;-61
2023/10/30 11:03:01;;;;;;;;;;;;;;;21.54;46.29;95540.56;5135713;27;1992;-61
2023/10/30 11:05:29;;;;;;;;;;;;;;;21.42;45.90;95540.41;5135316;27;964;-61
2023/10/30 11:08:03;;;;;;;;;;;;;;;21.39;46.30;95543.56;5135099;27;1223;-61
2023/10/30 11:10:33;;;;;;;;;;;;;;;21.55;45.63;95525.94;5135594;27;1024;-61
2023/10/30 11:13:03;;;;;;;;;;;;;;;21.62;45.72;95523.97;5135355;27;1091;-61
2023/10/30 11:15:34;;;;;;;;;;;;;;;21.57;46.52;95523.81;5135481;27;1012;-61
2023/10/30 11:18:15;;;;;;;;;;;;;;;21.40;46.39;95517.22;5135265;27;1043;-61
2023/10/30 11:20:42;;;;;;;;;;;;;;;21.39;46.71;95510.09;5134380;27;937;-61
2023/10/30 11:23:09;;;;;;;;;;;;;;;21.29;46.78;95515.22;5135008;27;1905;-61
2023/10/30 11:25:55;;;;;;;;;;;;;;;21.30;45.67;95511.41;5135169;27;1031;-61
2023/10/30 11:28:22;;;;;;;;;;;;;;;21.21;45.70;95503.53;5135163;27;1029;-61
2023/10/30 11:30:48;;;;;;;;;;;;;;;21.15;46.42;95496.25;5134925;27;1052;-61
2023/10/30 11:33:21;;;;;;;;;;;;;;;21.31;46.94;95491.34;5142506;27;1184;-61
2023/10/30 11:36:06;;;;;;;;;;;;;;;21.50;46.82;95479.50;5155599;27;1115;-60
2023/10/30 11:38:46;;;;;;;;;;;;;;;21.54;46.20;95482.63;5155480;27;959;-61
2023/10/30 11:41:14;;;;;;;;;;;;;;;21.56;46.90;95470.44;5155277;27;1048;-61
2023/10/30 11:43:41;;;;;;;;;;;;;;;21.60;46.67;95470.84;5155571;27;1938;-61
2023/10/30 11:46:07;;;;;;;;;;;;;;;21.57;45.12;95466.69;5155727;27;933;-61
2023/10/30 11:48:36;;;;;;;;;;;;;;;21.60;45.97;95462.69;5155517;27;1039;-61
2023/10/30 11:51:02;;;;;;;;;;;;;;;21.51;46.46;95456.66;5137233;27;988;-61
2023/10/30 11:53:28;;;;;;;;;;;;;;;21.58;46.22;95452.00;5155404;27;1056;-61
2023/10/30 11:55:54;;;;;;;;;;;;;;;21.64;46.26;95453.00;5155472;27;961;-61
2023/10/30 11:58:21;;;;;;;;;;;;;;;21.66;46.14;95450.06;5155392;27;1016;-61
2023/10/30 12:00:49;;;;;;;;;;;;;;;21.68;46.77;95447.97;5155161;27;1056;-61
2023/10/30 12:03:16;;;;;;;;;;;;;;;21.74;46.51;95453.34;5154972;27;1902;-60
2023/10/30 12:05:42;;;;;;;;;;;;;;;21.74;46.59;95455.22;5155206;27;968;-60
2023/10/30 12:08:09;;;;;;;;;;;;;;;21.70;45.77;95437.69;5154918;27;1079;-61
2023/10/30 12:10:37;;;;;;;;;;;;;;;21.76;45.77;95436.78;5136957;27;1127;-61
2023/10/30 12:13:04;;;;;;;;;;;;;;;21.82;44.76;95436.72;5154864;27;1044;-61
2023/10/30 12:15:30;;;;;;;;;;;;;;;21.91;47.23;95436.44;5155177;27;1039;-61
2023/10/30 12:17:56;;;;;;;;;;;;;;;21.80;46.07;95429.84;5155043;27;1051;-61
2023/10/30 12:20:22;;;;;;;;;;;;;;;21.74;44.91;95431.59;5154812;27;1032;-61
2023/10/30 12:22:48;;;;;;;;;;;;;;;21.83;45.80;95427.53;5154851;27;1897;-60
2023/10/30 12:25:15;;;;;;;;;;;;;;;21.91;46.33;95415.50;5154683;27;1056;-61
2023/10/30 12:27:42;;;;;;;;;;;;;;;21.87;44.95;95413.44;5154261;27;1044;-61
2023/10/30 12:30:09;;;;;;;;;;;;;;;21.93;46.61;95410.66;5154958;27;1011;-61
2023/10/30 12:32:35;;;;;;;;;;;;;;;21.98;46.27;95407.25;5155977;27;1172;-61
2023/10/30 12:35:14;;;;;;;;;;;;;;;21.94;46.02;95409.59;5138323;27;1099;-61
2023/10/30 12:37:40;;;;;;;;;;;;;;;21.84;43.91;95409.28;5138235;27;964;-61
2023/10/30 12:40:10;;;;;;;;;;;;;;;21.90;45.14;95408.38;5120149;27;973;-60
2023/10/30 12:42:36;;;;;;;;;;;;;;;21.94;43.88;95400.59;5138437;27;1000;-62
2023/10/30 12:45:12;;;;;;;;;;;;;;;22.00;45.07;95396.97;5138258;27;1890;-60
2023/10/30 12:47:39;;;;;;;;;;;;;;;21.99;44.98;95389.88;5138499;27;1037;-62
2023/10/30 12:50:05;;;;;;;;;;;;;;;21.97;44.84;95383.81;5138239;27;1072;-61
2023/10/30 12:52:31;;;;;;;;;;;;;;;21.97;44.71;95379.22;5138193;27;1040;-60
2023/10/30 12:54:58;;;;;;;;;;;;;;;21.96;45.81;95384.88;5138048;27;1037;-60
2023/10/30 12:57:24;;;;;;;;;;;;;;;21.92;45.81;95376.31;5138014;27;1052;-62
2023/10/30 12:59:50;;;;;;;;;;;;;;;21.85;45.55;95375.56;5137740;27;1107;-62
2023/10/30 13:02:16;;;;;;;;;;;;;;;21.82;45.06;95368.69;5138097;27;1040;-62